createdAt,value
2019-05-18T00:00:19.532Z,102232.41
2019-05-18T00:03:26.004Z,102224.30
2019-05-18T00:06:33.541Z,102226.92
2019-05-18T00:09:39.881Z,102219.44
2019-05-18T00:12:46.231Z,102216.94
2019-05-18T00:15:52.607Z,102215.11
2019-05-18T00:18:59.055Z,102210.08
2019-05-18T00:22:05.542Z,102210.72
2019-05-18T00:25:12.079Z,102206.48
2019-05-18T00:28:18.816Z,102208.20
2019-05-18T00:31:25.218Z,102213.46
2019-05-18T00:34:31.742Z,102210.08
2019-05-18T00:37:38.020Z,102203.96
2019-05-18T00:40:44.546Z,102206.37
2019-05-18T00:43:51.235Z,102192.48
2019-05-18T00:46:57.599Z,102190.89
2019-05-18T00:50:04.125Z,102183.41
2019-05-18T00:53:10.614Z,102185.47
2019-05-18T00:56:16.972Z,102177.34
2019-05-18T00:59:23.507Z,102183.16
2019-05-18T01:02:29.994Z,102175.13
2019-05-18T01:05:38.125Z,102169.28
2019-05-18T01:09:04.974Z,102168.98
2019-05-18T01:12:29.512Z,102170.75
2019-05-18T01:15:54.155Z,102186.55
2019-05-18T01:19:18.491Z,102185.58
2019-05-18T01:22:43.302Z,102175.59
2019-05-18T01:26:08.742Z,102184.84
2019-05-18T01:29:33.341Z,102182.36
2019-05-18T01:32:57.700Z,102178.85
2019-05-18T01:36:22.090Z,102185.06
2019-05-18T01:39:46.514Z,102183.97
2019-05-18T01:43:11.239Z,102186.19
2019-05-18T01:46:17.834Z,102183.98
2019-05-18T01:49:24.303Z,102183.98
2019-05-18T01:52:30.802Z,102189.47
2019-05-18T01:55:37.098Z,102179.55
2019-05-18T01:58:43.539Z,102182.03
2019-05-18T02:01:51.009Z,102184.40
2019-05-18T02:04:57.636Z,102193.59
2019-05-18T02:08:04.036Z,102191.33
2019-05-18T02:11:10.479Z,102182.35
2019-05-18T02:14:16.898Z,102175.69
2019-05-18T02:17:23.258Z,102177.44
2019-05-18T02:20:29.666Z,102174.39
2019-05-18T02:23:36.360Z,102178.68
2019-05-18T02:26:42.919Z,102166.23
2019-05-18T02:29:49.785Z,102165.80
2019-05-18T02:32:56.154Z,102163.45
2019-05-18T02:36:02.562Z,102155.55
2019-05-18T02:39:10.000Z,102160.38
2019-05-18T02:42:16.499Z,102165.47
2019-05-18T02:45:22.928Z,102167.87
2019-05-18T02:48:45.815Z,102167.05
2019-05-18T02:51:38.008Z,102164.70
2019-05-18T02:54:44.421Z,102164.19
2019-05-18T02:57:50.817Z,102156.53
2019-05-18T03:00:57.358Z,102153.09
2019-05-18T03:04:03.916Z,102148.98
2019-05-18T03:07:10.370Z,102153.41
2019-05-18T03:10:16.747Z,102145.92
2019-05-18T03:13:23.090Z,102149.63
2019-05-18T03:16:29.482Z,102142.66
2019-05-18T03:19:36.102Z,102148.66
2019-05-18T03:22:42.460Z,102143.30
2019-05-18T03:25:48.985Z,102153.73
2019-05-18T03:28:55.474Z,102149.30
2019-05-18T03:32:01.910Z,102139.92
2019-05-18T03:35:08.487Z,102140.23
2019-05-18T03:38:15.109Z,102145.92
2019-05-18T03:41:21.540Z,102139.41
2019-05-18T03:44:28.034Z,102133.59
2019-05-18T03:47:34.421Z,102132.56
2019-05-18T03:50:40.942Z,102125.52
2019-05-18T03:53:47.308Z,102138.98
2019-05-18T03:56:53.900Z,102134.58
2019-05-18T04:00:00.582Z,102135.55
2019-05-18T04:03:06.937Z,102135.86
2019-05-18T04:06:13.476Z,102139.78
2019-05-18T04:09:19.982Z,102132.39
2019-05-18T04:12:26.379Z,102138.54
2019-05-18T04:15:32.942Z,102127.16
2019-05-18T04:18:39.370Z,102136.05
2019-05-18T04:21:45.890Z,102133.95
2019-05-18T04:24:52.302Z,102132.58
2019-05-18T04:27:58.955Z,102138.48
2019-05-18T04:31:05.282Z,102142.41
2019-05-18T04:34:12.003Z,102130.39
2019-05-18T04:37:18.367Z,102126.95
2019-05-18T04:40:24.984Z,102127.38
2019-05-18T04:43:31.455Z,102127.38
2019-05-18T04:46:38.836Z,102125.83
2019-05-18T04:50:03.812Z,102122.70
2019-05-18T04:52:54.927Z,102110.49
2019-05-18T04:56:01.363Z,102096.58
2019-05-18T04:59:07.851Z,102101.33
2019-05-18T05:02:14.296Z,102097.03
2019-05-18T05:05:20.662Z,102093.45
2019-05-18T05:08:26.986Z,102096.09
2019-05-18T05:11:33.564Z,102092.62
2019-05-18T05:14:39.937Z,102091.18
2019-05-18T05:17:46.568Z,102082.56
2019-05-18T05:20:53.128Z,102075.64
2019-05-18T05:23:59.463Z,102083.47
2019-05-18T05:27:06.884Z,102081.36
2019-05-18T05:30:13.829Z,102071.88
2019-05-18T05:33:20.285Z,102068.95
2019-05-18T05:36:27.059Z,102075.70
2019-05-18T05:39:33.477Z,102071.49
2019-05-18T05:42:39.790Z,102081.20
2019-05-18T05:45:46.202Z,102071.72
2019-05-18T05:48:52.798Z,102065.84
2019-05-18T05:51:59.240Z,102076.20
2019-05-18T05:55:05.921Z,102087.59
2019-05-18T05:58:12.342Z,102083.92
2019-05-18T06:01:18.768Z,102075.81
2019-05-18T06:04:25.286Z,102080.14
2019-05-18T06:07:31.727Z,102084.82
2019-05-18T06:10:38.216Z,102074.59
2019-05-18T06:13:44.724Z,102069.84
2019-05-18T06:16:51.201Z,102065.33
2019-05-18T06:19:59.197Z,102070.40
2019-05-18T06:23:05.720Z,102060.69
2019-05-18T06:26:12.202Z,102070.17
2019-05-18T06:29:18.654Z,102054.79
2019-05-18T06:32:25.198Z,102054.79
2019-05-18T06:35:31.742Z,102074.02
2019-05-18T06:38:38.352Z,102079.09
2019-05-18T06:41:44.697Z,102079.94
2019-05-18T06:44:51.298Z,102074.77
2019-05-18T06:47:57.699Z,102074.34
2019-05-18T06:51:07.202Z,102069.37
2019-05-18T06:54:12.398Z,102075.81
2019-05-18T06:57:18.917Z,102076.16
2019-05-18T07:00:25.380Z,102076.58
2019-05-18T07:03:31.970Z,102069.29
2019-05-18T07:06:38.450Z,102069.29
2019-05-18T07:09:44.986Z,102074.02
2019-05-18T07:12:51.296Z,102070.66
2019-05-18T07:16:00.623Z,102078.47
2019-05-18T07:19:07.148Z,102074.98
2019-05-18T07:22:13.604Z,102079.92
2019-05-18T07:25:20.188Z,102082.64
2019-05-18T07:28:28.937Z,102071.23
2019-05-18T07:31:35.500Z,102073.13
2019-05-18T07:34:42.287Z,102055.98
2019-05-18T07:37:48.979Z,102054.23
2019-05-18T07:40:55.805Z,102054.23
2019-05-18T07:44:05.689Z,102058.41
2019-05-18T07:47:21.261Z,102064.46
2019-05-18T07:50:29.293Z,102063.41
2019-05-18T07:53:35.993Z,102064.14
2019-05-18T07:56:43.480Z,102063.48
2019-05-18T07:59:50.126Z,102067.38
2019-05-18T08:02:56.680Z,102058.84
2019-05-18T08:06:04.341Z,102060.64
2019-05-18T08:09:10.765Z,102056.36
2019-05-18T08:12:23.371Z,102039.63
2019-05-18T08:15:29.954Z,102053.52
2019-05-18T08:18:37.589Z,102051.56
2019-05-18T08:21:52.911Z,102049.28
2019-05-18T08:24:52.163Z,102041.94
2019-05-18T08:27:58.753Z,102040.72
2019-05-18T08:31:05.287Z,102034.76
2019-05-18T08:34:11.749Z,102041.94
2019-05-18T08:37:18.483Z,102047.14
2019-05-18T08:40:24.975Z,102030.91
2019-05-18T08:43:31.672Z,102030.91
2019-05-18T08:46:38.261Z,102043.78
2019-05-18T08:49:44.954Z,102027.95
2019-05-18T08:52:53.916Z,102043.27
2019-05-18T08:56:00.411Z,102036.22
2019-05-18T08:59:06.789Z,102038.67
2019-05-18T09:02:13.188Z,102034.07
2019-05-18T09:05:19.780Z,102046.63
2019-05-18T09:08:26.301Z,102042.06
2019-05-18T09:11:34.305Z,102033.42
2019-05-18T09:14:41.952Z,102037.55
2019-05-18T09:17:49.932Z,102035.51
2019-05-18T09:20:56.491Z,102041.70
2019-05-18T09:24:03.185Z,102031.54
2019-05-18T09:27:09.725Z,102040.32
2019-05-18T09:30:16.512Z,102030.88
2019-05-18T09:33:23.037Z,102021.64
2019-05-18T09:36:29.513Z,102022.28
2019-05-18T09:39:36.137Z,102021.72
2019-05-18T09:42:42.718Z,102017.09
2019-05-18T09:45:49.342Z,102016.30
2019-05-18T09:48:55.868Z,102007.22
2019-05-18T09:52:02.677Z,102009.98
2019-05-18T09:55:10.957Z,101999.28
2019-05-18T09:58:18.429Z,102014.58
2019-05-18T10:01:24.983Z,102008.64
2019-05-18T10:04:31.462Z,102001.70
2019-05-18T10:07:38.116Z,101993.58
2019-05-18T10:10:56.883Z,101987.69
2019-05-18T10:14:00.779Z,101984.06
2019-05-18T10:17:07.317Z,101970.96
2019-05-18T10:20:14.406Z,101967.68
2019-05-18T10:23:20.949Z,101973.15
2019-05-18T10:26:27.412Z,101973.73
2019-05-18T10:29:33.969Z,101973.73
2019-05-18T10:32:40.442Z,101986.36
2019-05-18T10:35:47.023Z,101986.36
2019-05-18T10:38:53.458Z,101979.94
2019-05-18T10:42:00.081Z,101981.66
2019-05-18T10:45:06.868Z,101986.02
2019-05-18T10:48:17.689Z,101986.02
2019-05-18T10:51:24.160Z,101994.05
2019-05-18T10:54:30.744Z,101993.72
2019-05-18T10:57:37.284Z,101997.29
2019-05-18T11:00:43.848Z,102003.00
2019-05-18T11:03:50.311Z,102004.83
2019-05-18T11:06:57.699Z,101984.50
2019-05-18T11:10:04.597Z,101996.27
2019-05-18T11:13:11.170Z,101985.15
2019-05-18T11:16:19.108Z,101982.79
2019-05-18T11:19:25.609Z,101982.22
2019-05-18T11:22:33.658Z,101981.05
2019-05-18T11:25:40.527Z,101990.42
2019-05-18T11:28:47.240Z,101988.61
2019-05-18T11:31:53.762Z,101975.92
2019-05-18T11:35:01.008Z,101971.52
2019-05-18T11:38:10.103Z,101971.52
2019-05-18T11:41:16.650Z,101970.22
2019-05-18T11:44:23.574Z,101959.88
2019-05-18T11:47:30.915Z,101959.88
2019-05-18T11:50:37.514Z,101965.37
2019-05-18T11:53:57.214Z,101972.23
2019-05-18T11:56:52.265Z,101975.91
2019-05-18T11:59:58.757Z,101975.50
2019-05-18T12:03:05.279Z,101975.50
2019-05-18T12:06:11.724Z,101981.78
2019-05-18T12:09:18.252Z,101976.48
2019-05-18T12:12:24.816Z,101964.50
2019-05-18T12:15:32.143Z,101959.90
2019-05-18T12:18:39.481Z,101962.03
2019-05-18T12:21:47.524Z,101960.14
2019-05-18T12:24:54.143Z,101963.27
2019-05-18T12:28:00.677Z,101956.04
2019-05-18T12:31:07.158Z,101964.23
2019-05-18T12:34:13.623Z,101958.11
2019-05-18T12:37:23.965Z,101973.83
2019-05-18T12:40:30.447Z,101973.83
2019-05-18T12:43:37.858Z,101965.04
2019-05-18T12:46:44.796Z,101969.45
2019-05-18T12:49:51.346Z,101960.38
2019-05-18T12:52:57.986Z,101954.66
2019-05-18T12:56:04.492Z,101958.94
2019-05-18T12:59:10.875Z,101954.53
2019-05-18T13:02:17.447Z,101957.94
2019-05-18T13:05:24.916Z,101957.48
2019-05-18T13:08:31.292Z,101952.23
2019-05-18T13:11:37.810Z,101957.66
2019-05-18T13:14:44.379Z,101939.06
2019-05-18T13:17:50.926Z,101938.76
2019-05-18T13:20:57.374Z,101940.44
2019-05-18T13:24:03.768Z,101942.61
2019-05-18T13:27:17.048Z,101940.12
2019-05-18T13:30:23.955Z,101939.27
2019-05-18T13:33:30.306Z,101942.02
2019-05-18T13:36:36.787Z,101938.84
2019-05-18T13:39:43.206Z,101933.78
2019-05-18T13:42:49.652Z,101932.07
2019-05-18T13:45:57.331Z,101937.07
2019-05-18T13:49:04.445Z,101933.96
2019-05-18T13:52:10.952Z,101925.32
2019-05-18T13:55:17.875Z,101922.30
2019-05-18T13:58:24.313Z,101919.32
2019-05-18T14:01:30.711Z,101907.91
2019-05-18T14:04:37.168Z,101912.34
2019-05-18T14:07:43.608Z,101904.27
2019-05-18T14:10:50.018Z,101900.92
2019-05-18T14:13:58.085Z,101903.67
2019-05-18T14:17:05.973Z,101891.37
2019-05-18T14:20:12.900Z,101902.46
2019-05-18T14:23:19.454Z,101890.44
2019-05-18T14:26:27.387Z,101890.68
2019-05-18T14:29:33.882Z,101895.01
2019-05-18T14:32:40.417Z,101883.61
2019-05-18T14:35:46.927Z,101883.78
2019-05-18T14:38:56.752Z,101882.61
2019-05-18T14:42:01.605Z,101878.67
2019-05-18T14:45:08.337Z,101879.23
2019-05-18T14:48:14.813Z,101883.27
2019-05-18T14:51:22.123Z,101879.66
2019-05-18T14:54:28.658Z,101879.52
2019-05-18T14:57:36.444Z,101877.44
2019-05-18T15:00:45.906Z,101873.27
2019-05-18T15:03:58.574Z,101876.67
2019-05-18T15:07:05.143Z,101877.76
2019-05-18T15:10:12.683Z,101871.53
2019-05-18T15:13:19.554Z,101871.53
2019-05-18T15:16:26.051Z,101865.00
2019-05-18T15:19:32.520Z,101869.03
2019-05-18T15:22:39.038Z,101869.03
2019-05-18T15:25:50.604Z,101859.20
2019-05-18T15:28:53.593Z,101859.72
2019-05-18T15:32:00.042Z,101852.25
2019-05-18T15:35:07.092Z,101857.45
2019-05-18T15:38:13.492Z,101847.06
2019-05-18T15:41:20.141Z,101840.80
2019-05-18T15:44:26.958Z,101846.16
2019-05-18T15:47:33.840Z,101836.81
2019-05-18T15:50:40.280Z,101838.55
2019-05-18T15:53:47.189Z,101831.67
2019-05-18T15:56:54.345Z,101839.58
2019-05-18T16:00:01.331Z,101839.58
2019-05-18T16:03:07.940Z,101845.12
2019-05-18T16:06:14.523Z,101851.88
2019-05-18T16:09:21.161Z,101850.40
2019-05-18T16:12:27.671Z,101849.50
2019-05-18T16:15:34.152Z,101840.28
2019-05-18T16:18:40.600Z,101852.84
2019-05-18T16:21:47.168Z,101843.90
2019-05-18T16:24:54.672Z,101839.85
2019-05-18T16:28:01.155Z,101825.29
2019-05-18T16:31:07.687Z,101820.73
2019-05-18T16:34:14.351Z,101810.53
2019-05-18T16:37:20.881Z,101810.53
2019-05-18T16:40:27.400Z,101813.50
2019-05-18T16:43:33.930Z,101811.70
2019-05-18T16:46:40.343Z,101814.31
2019-05-18T16:49:47.021Z,101810.09
2019-05-18T16:52:53.501Z,101816.82
2019-05-18T16:56:00.605Z,101814.50
2019-05-18T16:59:07.169Z,101798.89
2019-05-18T17:02:13.813Z,101798.89
2019-05-18T17:05:20.676Z,101805.36
2019-05-18T17:08:27.311Z,101807.11
2019-05-18T17:11:33.754Z,101818.88
2019-05-18T17:14:40.352Z,101814.38
2019-05-18T17:17:46.992Z,101800.06
2019-05-18T17:20:54.198Z,101806.73
2019-05-18T17:24:00.777Z,101810.73
2019-05-18T17:27:07.317Z,101794.76
2019-05-18T17:30:14.069Z,101785.57
2019-05-18T17:33:20.575Z,101781.09
2019-05-18T17:36:27.094Z,101769.78
2019-05-18T17:39:33.569Z,101774.67
2019-05-18T17:42:40.015Z,101778.44
2019-05-18T17:45:46.505Z,101766.56
2019-05-18T17:48:53.078Z,101767.05
2019-05-18T17:51:59.670Z,101769.20
2019-05-18T17:55:06.272Z,101769.63
2019-05-18T17:58:13.121Z,101763.73
2019-05-18T18:01:19.691Z,101763.88
2019-05-18T18:04:26.247Z,101755.91
2019-05-18T18:07:32.794Z,101745.66
2019-05-18T18:10:39.406Z,101744.92
2019-05-18T18:13:45.977Z,101753.31
2019-05-18T18:16:52.507Z,101751.23
2019-05-18T18:19:59.011Z,101748.76
2019-05-18T18:23:05.542Z,101748.76
2019-05-18T18:26:12.076Z,101761.95
2019-05-18T18:29:18.820Z,101761.95
2019-05-18T18:32:25.364Z,101762.23
2019-05-18T18:35:33.328Z,101757.62
2019-05-18T18:38:39.928Z,101760.07
2019-05-18T18:41:46.606Z,101758.57
2019-05-18T18:44:53.043Z,101762.36
2019-05-18T18:48:00.698Z,101762.30
2019-05-18T18:51:07.267Z,101759.64
2019-05-18T18:54:14.478Z,101758.52
2019-05-18T18:57:20.844Z,101765.94
2019-05-18T19:00:27.775Z,101759.33
2019-05-18T19:03:34.324Z,101758.92
2019-05-18T19:06:41.360Z,101756.45
2019-05-18T19:09:47.913Z,101747.89
2019-05-18T19:12:54.421Z,101753.50
2019-05-18T19:16:01.159Z,101751.33
2019-05-18T19:19:07.743Z,101743.06
2019-05-18T19:22:14.357Z,101740.17
2019-05-18T19:25:21.078Z,101749.38
2019-05-18T19:28:27.657Z,101745.42
2019-05-18T19:31:35.604Z,101746.53
2019-05-18T19:34:42.035Z,101753.10
2019-05-18T19:37:48.492Z,101751.17
2019-05-18T19:40:55.155Z,101756.00
2019-05-18T19:44:01.912Z,101745.66
2019-05-18T19:47:08.359Z,101740.72
2019-05-18T19:50:16.265Z,101748.77
2019-05-18T19:53:22.827Z,101763.84
2019-05-18T19:56:29.337Z,101763.84
2019-05-18T19:59:35.850Z,101751.45
2019-05-18T20:02:43.603Z,101730.66
2019-05-18T20:05:50.124Z,101728.44
2019-05-18T20:08:56.642Z,101730.48
2019-05-18T20:12:03.125Z,101722.72
2019-05-18T20:15:10.063Z,101730.34
2019-05-18T20:18:17.824Z,101731.37
2019-05-18T20:21:24.350Z,101726.84
2019-05-18T20:24:30.740Z,101723.03
2019-05-18T20:27:37.273Z,101718.23
2019-05-18T20:30:43.897Z,101719.22
2019-05-18T20:33:50.378Z,101785.52
2019-05-18T20:36:56.844Z,101791.56
2019-05-18T20:40:03.391Z,101785.05
2019-05-18T20:43:10.004Z,101791.48
2019-05-18T20:46:16.451Z,101782.06
2019-05-18T20:49:22.959Z,101780.08
2019-05-18T20:52:29.489Z,101768.32
2019-05-18T20:55:35.998Z,101747.81
2019-05-18T20:58:42.970Z,101712.30
2019-05-18T21:01:49.456Z,101718.93
2019-05-18T21:04:57.185Z,101710.67
2019-05-18T21:08:03.636Z,101717.80
2019-05-18T21:11:10.164Z,101698.31
2019-05-18T21:14:16.624Z,101692.50
2019-05-18T21:17:23.047Z,101692.50
2019-05-18T21:20:29.531Z,101707.47
2019-05-18T21:23:35.870Z,101701.23
2019-05-18T21:26:42.275Z,101708.69
2019-05-18T21:29:48.859Z,101724.72
2019-05-18T21:32:55.372Z,101719.82
2019-05-18T21:36:02.590Z,101723.31
2019-05-18T21:39:12.811Z,101737.34
2019-05-18T21:42:19.220Z,101737.34
2019-05-18T21:45:25.790Z,101724.23
2019-05-18T21:48:32.287Z,101717.05
2019-05-18T21:51:38.775Z,101720.24
2019-05-18T21:54:45.310Z,101719.92
2019-05-18T21:57:52.002Z,101725.25
2019-05-18T22:00:58.527Z,101727.59
2019-05-18T22:04:05.410Z,101713.65
2019-05-18T22:07:12.703Z,101693.92
2019-05-18T22:10:25.855Z,101693.92
2019-05-18T22:13:29.332Z,101690.73
2019-05-18T22:16:35.795Z,101675.05
2019-05-18T22:19:42.226Z,101674.23
2019-05-18T22:22:48.757Z,101674.28
2019-05-18T22:25:57.138Z,101666.04
2019-05-18T22:29:03.642Z,101657.11
2019-05-18T22:32:11.426Z,101655.05
2019-05-18T22:35:19.455Z,101651.61
2019-05-18T22:38:29.329Z,101642.00
2019-05-18T22:41:37.825Z,101600.59
2019-05-18T22:44:48.762Z,101646.64
2019-05-18T22:47:55.206Z,101638.56
2019-05-18T22:51:01.874Z,101633.87
2019-05-18T22:54:09.488Z,101636.17
2019-05-18T22:57:16.027Z,101632.18
2019-05-18T23:00:22.522Z,101628.62
2019-05-18T23:03:29.739Z,101621.19
2019-05-18T23:06:55.539Z,101626.40
2019-05-18T23:10:03.994Z,101624.09
2019-05-18T23:13:10.461Z,101616.46
2019-05-18T23:16:17.022Z,101619.53
2019-05-18T23:19:24.504Z,101625.47
2019-05-18T23:22:32.641Z,101620.95
2019-05-18T23:25:39.068Z,101624.81
2019-05-18T23:28:45.567Z,101615.00
2019-05-18T23:31:52.012Z,101611.08
2019-05-18T23:34:58.424Z,101615.19
2019-05-18T23:38:04.982Z,101613.65
2019-05-18T23:41:11.506Z,101613.65
2019-05-18T23:44:17.996Z,101607.83
2019-05-18T23:47:24.633Z,101610.73
2019-05-18T23:50:31.193Z,101608.83
2019-05-18T23:53:37.662Z,101607.34
2019-05-18T23:56:44.038Z,101589.94
2019-05-18T23:59:51.130Z,101593.33
